createdAt,value
2019-03-17T00:02:32.631Z,51.20
2019-03-17T00:05:25.293Z,51.20
2019-03-17T00:08:18.896Z,51.30
2019-03-17T00:11:11.519Z,51.20
2019-03-17T00:14:03.706Z,51.30
2019-03-17T00:16:56.759Z,51.30
2019-03-17T00:19:49.376Z,51.10
2019-03-17T00:22:41.745Z,51.20
2019-03-17T00:25:35.103Z,51.20
2019-03-17T00:28:27.719Z,51.10
2019-03-17T00:31:24.122Z,51.20
2019-03-17T00:34:14.706Z,51.10
2019-03-17T00:37:07.116Z,51.10
2019-03-17T00:39:59.204Z,51.20
2019-03-17T00:42:52.127Z,51.10
2019-03-17T00:45:44.467Z,51.20
2019-03-17T00:48:36.921Z,51.20
2019-03-17T00:51:29.137Z,51.20
2019-03-17T00:54:21.491Z,51.20
2019-03-17T00:57:14.660Z,51.20
2019-03-17T01:00:07.835Z,51.20
2019-03-17T01:03:00.199Z,51.40
2019-03-17T01:05:53.359Z,51.40
2019-03-17T01:08:47.026Z,51.30
2019-03-17T01:11:39.571Z,51.20
2019-03-17T01:14:32.469Z,51.20
2019-03-17T01:19:09.294Z,50.80
2019-03-17T01:22:02.210Z,51.40
2019-03-17T01:24:54.919Z,51.20
2019-03-17T01:27:47.341Z,51.40
2019-03-17T01:30:40.075Z,51.50
2019-03-17T01:33:32.520Z,51.50
2019-03-17T01:36:25.544Z,51.50
2019-03-17T01:39:18.462Z,51.70
2019-03-17T01:42:10.779Z,51.60
2019-03-17T01:45:03.517Z,51.70
2019-03-17T01:47:55.833Z,51.70
2019-03-17T01:50:48.659Z,51.70
2019-03-17T01:53:41.150Z,51.80
2019-03-17T01:56:33.475Z,51.80
2019-03-17T01:59:26.131Z,51.70
2019-03-17T02:02:18.463Z,51.90
2019-03-17T02:05:21.487Z,51.80
2019-03-17T02:08:05.009Z,51.90
2019-03-17T02:10:57.619Z,51.80
2019-03-17T02:13:50.033Z,51.90
2019-03-17T02:16:42.492Z,51.90
2019-03-17T02:19:34.608Z,51.80
2019-03-17T02:22:26.624Z,52.00
2019-03-17T02:25:19.140Z,52.00
2019-03-17T02:28:11.427Z,52.00
2019-03-17T02:31:05.067Z,52.10
2019-03-17T02:33:57.331Z,52.10
2019-03-17T02:36:49.497Z,52.00
2019-03-17T02:39:42.034Z,52.10
2019-03-17T02:42:34.719Z,52.10
2019-03-17T02:45:27.699Z,52.10
2019-03-17T02:48:21.147Z,52.20
2019-03-17T02:51:13.450Z,52.20
2019-03-17T02:54:06.989Z,52.20
2019-03-17T02:56:59.348Z,52.20
2019-03-17T02:59:51.991Z,52.20
2019-03-17T03:02:45.201Z,52.70
2019-03-17T03:05:53.519Z,52.10
2019-03-17T03:08:33.585Z,52.10
2019-03-17T03:11:26.075Z,52.20
2019-03-17T03:14:18.582Z,52.10
2019-03-17T03:17:10.980Z,52.10
2019-03-17T03:20:02.999Z,52.10
2019-03-17T03:22:57.085Z,52.10
2019-03-17T03:25:49.560Z,52.10
2019-03-17T03:28:42.899Z,52.20
2019-03-17T03:31:35.476Z,52.00
2019-03-17T03:34:28.383Z,52.10
2019-03-17T03:37:20.538Z,52.20
2019-03-17T03:40:14.039Z,52.20
2019-03-17T03:43:06.451Z,52.20
2019-03-17T03:45:59.057Z,52.40
2019-03-17T03:48:51.594Z,52.40
2019-03-17T03:51:44.342Z,52.40
2019-03-17T03:54:36.342Z,52.20
2019-03-17T03:57:29.260Z,52.30
2019-03-17T04:00:21.508Z,52.40
2019-03-17T04:03:16.298Z,52.50
2019-03-17T04:06:25.239Z,52.50
2019-03-17T04:09:05.561Z,52.40
2019-03-17T04:11:58.307Z,52.30
2019-03-17T04:14:50.873Z,52.20
2019-03-17T04:17:43.923Z,52.20
2019-03-17T04:20:38.239Z,52.20
2019-03-17T04:23:31.576Z,52.10
2019-03-17T04:26:24.225Z,52.00
2019-03-17T04:29:16.759Z,52.00
2019-03-17T04:32:09.362Z,52.00
2019-03-17T04:35:02.223Z,52.00
2019-03-17T04:37:55.865Z,51.90
2019-03-17T04:40:47.907Z,51.80
2019-03-17T04:43:40.285Z,51.80
2019-03-17T04:46:33.027Z,51.70
2019-03-17T04:49:26.819Z,51.70
2019-03-17T04:52:19.618Z,52.30
2019-03-17T04:55:12.317Z,51.70
2019-03-17T04:58:05.130Z,51.70
2019-03-17T05:00:58.551Z,51.60
2019-03-17T05:03:52.247Z,51.60
2019-03-17T05:06:52.397Z,51.60
2019-03-17T05:09:38.731Z,51.50
2019-03-17T05:12:31.334Z,51.50
2019-03-17T05:15:25.397Z,51.40
2019-03-17T05:18:17.895Z,51.40
2019-03-17T05:21:10.589Z,51.40
2019-03-17T05:24:03.313Z,51.40
2019-03-17T05:26:56.119Z,51.40
2019-03-17T05:29:48.910Z,51.40
2019-03-17T05:32:41.367Z,51.40
2019-03-17T05:35:34.309Z,51.30
2019-03-17T05:38:28.228Z,51.30
2019-03-17T05:41:22.139Z,51.30
2019-03-17T05:44:14.710Z,51.20
2019-03-17T05:47:07.637Z,51.20
2019-03-17T05:50:00.354Z,51.20
2019-03-17T05:52:52.460Z,51.10
2019-03-17T05:55:44.967Z,51.10
2019-03-17T05:58:37.846Z,51.10
2019-03-17T06:01:31.163Z,51.20
2019-03-17T06:04:23.581Z,51.00
2019-03-17T06:07:18.870Z,51.00
2019-03-17T06:10:10.871Z,50.90
2019-03-17T06:13:04.420Z,50.80
2019-03-17T06:15:56.618Z,50.80
2019-03-17T06:18:48.630Z,50.80
2019-03-17T06:21:41.645Z,50.70
2019-03-17T06:24:35.349Z,50.60
2019-03-17T06:27:27.954Z,50.50
2019-03-17T06:30:20.601Z,50.40
2019-03-17T06:33:13.262Z,50.40
2019-03-17T06:36:05.873Z,50.40
2019-03-17T06:38:58.056Z,50.30
2019-03-17T06:41:50.760Z,50.30
2019-03-17T06:44:43.950Z,50.30
2019-03-17T06:47:36.395Z,50.20
2019-03-17T06:50:29.078Z,50.20
2019-03-17T06:53:21.018Z,50.20
2019-03-17T06:56:13.598Z,50.10
2019-03-17T06:59:05.912Z,50.10
2019-03-17T07:01:58.352Z,50.00
2019-03-17T07:04:50.647Z,50.00
2019-03-17T07:07:44.222Z,50.00
2019-03-17T07:10:36.640Z,50.00
2019-03-17T07:13:29.055Z,50.00
2019-03-17T07:16:21.594Z,50.00
2019-03-17T07:19:13.547Z,50.00
2019-03-17T07:22:06.907Z,50.00
2019-03-17T07:24:58.881Z,49.90
2019-03-17T07:27:51.223Z,50.00
2019-03-17T07:30:43.785Z,49.90
2019-03-17T07:33:36.042Z,50.00
2019-03-17T07:36:28.240Z,49.90
2019-03-17T07:39:21.141Z,49.90
2019-03-17T07:42:13.595Z,50.20
2019-03-17T07:45:06.608Z,49.90
2019-03-17T07:47:59.718Z,49.90
2019-03-17T07:50:51.758Z,50.00
2019-03-17T07:53:44.723Z,50.00
2019-03-17T07:56:37.229Z,50.10
2019-03-17T07:59:31.260Z,50.00
2019-03-17T08:02:25.140Z,50.00
2019-03-17T08:05:17.442Z,50.10
2019-03-17T08:08:11.070Z,50.00
2019-03-17T08:11:03.330Z,50.10
2019-03-17T08:13:56.409Z,50.10
2019-03-17T08:16:50.579Z,50.10
2019-03-17T08:19:44.689Z,50.10
2019-03-17T08:22:36.815Z,49.80
2019-03-17T08:25:31.038Z,50.00
2019-03-17T08:28:23.214Z,50.10
2019-03-17T08:31:15.757Z,50.00
2019-03-17T08:34:07.898Z,50.10
2019-03-17T08:37:00.031Z,50.00
2019-03-17T08:39:53.576Z,50.00
2019-03-17T08:42:46.039Z,49.90
2019-03-17T08:45:39.104Z,49.90
2019-03-17T08:48:32.902Z,50.00
2019-03-17T08:51:25.302Z,49.90
2019-03-17T08:54:17.895Z,49.90
2019-03-17T08:57:10.002Z,49.90
2019-03-17T09:00:02.327Z,49.80
2019-03-17T09:02:57.420Z,49.80
2019-03-17T09:05:50.081Z,49.80
2019-03-17T09:08:44.420Z,49.80
2019-03-17T09:11:36.612Z,50.00
2019-03-17T09:14:28.940Z,49.90
2019-03-17T09:17:21.279Z,49.80
2019-03-17T09:20:13.412Z,49.80
2019-03-17T09:23:05.687Z,49.80
2019-03-17T09:25:57.730Z,49.80
2019-03-17T09:28:49.708Z,49.60
2019-03-17T09:31:42.429Z,49.70
2019-03-17T09:34:34.923Z,49.70
2019-03-17T09:37:27.873Z,49.60
2019-03-17T09:40:20.886Z,49.50
2019-03-17T09:43:13.921Z,49.50
2019-03-17T09:46:06.186Z,49.50
2019-03-17T09:48:58.870Z,49.40
2019-03-17T09:51:51.210Z,49.50
2019-03-17T09:54:43.831Z,49.40
2019-03-17T09:57:35.859Z,49.30
2019-03-17T10:00:28.295Z,49.30
2019-03-17T10:03:21.962Z,49.20
2019-03-17T10:06:14.959Z,49.20
2019-03-17T10:09:08.283Z,49.20
2019-03-17T10:12:01.013Z,49.10
2019-03-17T10:14:54.218Z,49.10
2019-03-17T10:17:47.423Z,49.10
2019-03-17T10:20:40.505Z,49.10
2019-03-17T10:23:33.387Z,49.10
2019-03-17T10:26:27.152Z,49.10
2019-03-17T10:29:20.034Z,49.10
2019-03-17T10:32:12.459Z,49.10
2019-03-17T10:35:05.610Z,49.20
2019-03-17T10:37:57.900Z,49.00
2019-03-17T10:40:50.356Z,49.00
2019-03-17T10:43:42.810Z,49.00
2019-03-17T10:46:36.496Z,49.00
2019-03-17T10:49:29.400Z,48.90
2019-03-17T10:52:21.695Z,49.10
2019-03-17T10:55:14.277Z,48.90
2019-03-17T10:58:06.455Z,48.90
2019-03-17T11:00:58.713Z,49.00
2019-03-17T11:03:50.747Z,48.90
2019-03-17T11:06:43.579Z,48.90
2019-03-17T11:09:37.788Z,48.90
2019-03-17T11:12:30.209Z,48.80
2019-03-17T11:15:22.427Z,48.80
2019-03-17T11:18:15.640Z,48.80
2019-03-17T11:21:08.103Z,48.90
2019-03-17T11:24:00.709Z,48.90
2019-03-17T11:26:55.745Z,48.90
2019-03-17T11:29:48.626Z,48.90
2019-03-17T11:32:41.268Z,48.90
2019-03-17T11:35:33.505Z,49.00
2019-03-17T11:38:25.815Z,49.00
2019-03-17T11:41:18.519Z,49.00
2019-03-17T11:44:11.532Z,49.00
2019-03-17T11:47:03.651Z,49.00
2019-03-17T11:49:56.029Z,49.00
2019-03-17T11:52:50.052Z,49.10
2019-03-17T11:55:42.752Z,49.10
2019-03-17T11:58:35.093Z,49.10
2019-03-17T12:01:28.738Z,49.10
2019-03-17T12:04:21.273Z,49.10
2019-03-17T12:07:14.233Z,49.10
2019-03-17T12:10:07.865Z,49.10
2019-03-17T12:13:00.099Z,49.20
2019-03-17T12:15:52.210Z,49.20
2019-03-17T12:18:44.737Z,49.20
2019-03-17T12:21:37.871Z,49.20
2019-03-17T12:24:31.136Z,49.30
2019-03-17T12:27:24.683Z,49.20
2019-03-17T12:30:20.497Z,49.20
2019-03-17T12:33:13.678Z,49.30
2019-03-17T12:36:06.385Z,49.30
2019-03-17T12:39:00.384Z,49.30
2019-03-17T12:41:53.953Z,49.30
2019-03-17T12:44:46.708Z,49.30
2019-03-17T12:47:40.086Z,49.30
2019-03-17T12:50:34.059Z,49.30
2019-03-17T12:53:27.613Z,49.30
2019-03-17T12:56:19.635Z,49.40
2019-03-17T12:59:12.609Z,49.40
2019-03-17T13:02:06.313Z,49.40
2019-03-17T13:04:59.431Z,49.50
2019-03-17T13:07:52.238Z,49.50
2019-03-17T13:10:45.934Z,49.50
2019-03-17T13:13:39.075Z,49.50
2019-03-17T13:16:31.230Z,49.60
2019-03-17T13:19:23.924Z,49.50
2019-03-17T13:22:16.075Z,49.60
2019-03-17T13:25:08.541Z,49.60
2019-03-17T13:28:02.273Z,50.00
2019-03-17T13:30:54.926Z,49.70
2019-03-17T13:33:47.453Z,49.70
2019-03-17T13:36:40.307Z,49.70
2019-03-17T13:39:33.171Z,49.80
2019-03-17T13:42:26.005Z,49.80
2019-03-17T13:45:18.558Z,49.80
2019-03-17T13:48:13.209Z,49.80
2019-03-17T13:51:07.508Z,49.80
2019-03-17T13:53:59.886Z,49.80
2019-03-17T13:56:52.198Z,49.90
2019-03-17T13:59:44.974Z,49.90
2019-03-17T14:02:37.308Z,49.90
2019-03-17T14:05:29.328Z,49.90
2019-03-17T14:08:23.735Z,49.90
2019-03-17T14:11:17.592Z,49.90
2019-03-17T14:14:10.546Z,49.90
2019-03-17T14:17:04.427Z,49.90
2019-03-17T14:19:58.110Z,50.00
2019-03-17T14:22:51.948Z,50.00
2019-03-17T14:25:44.543Z,50.00
2019-03-17T14:28:36.341Z,50.00
2019-03-17T14:31:28.949Z,49.90
2019-03-17T14:34:21.453Z,49.80
2019-03-17T14:37:14.969Z,49.90
2019-03-17T14:40:07.633Z,49.70
2019-03-17T14:43:00.253Z,49.60
2019-03-17T14:45:52.876Z,49.60
2019-03-17T14:48:45.907Z,49.70
2019-03-17T14:51:38.735Z,49.50
2019-03-17T14:54:31.494Z,49.50
2019-03-17T14:57:24.117Z,49.40
2019-03-17T15:00:18.222Z,49.40
2019-03-17T15:03:10.760Z,49.30
2019-03-17T15:06:03.939Z,49.30
2019-03-17T15:08:58.297Z,49.30
2019-03-17T15:11:51.305Z,49.20
2019-03-17T15:14:45.080Z,49.20
2019-03-17T15:17:38.045Z,49.10
2019-03-17T15:20:30.426Z,49.10
2019-03-17T15:23:23.069Z,48.90
2019-03-17T15:33:07.875Z,48.00
2019-03-17T15:36:01.685Z,48.60
2019-03-17T15:38:55.047Z,48.30
2019-03-17T15:41:47.249Z,48.20
2019-03-17T15:44:40.129Z,48.20
2019-03-17T15:47:32.117Z,48.30
2019-03-17T15:50:25.666Z,48.40
2019-03-17T15:53:17.663Z,48.30
2019-03-17T15:56:08.929Z,48.30
2019-03-17T16:09:16.603Z,47.70
2019-03-17T16:12:09.009Z,48.30
2019-03-17T16:15:03.322Z,48.30
2019-03-17T16:29:00.663Z,47.60
2019-03-17T16:31:53.149Z,48.60
2019-03-17T16:34:46.290Z,48.20
2019-03-17T16:37:39.876Z,48.10
2019-03-17T16:40:34.041Z,48.30
2019-03-17T16:43:27.053Z,48.20
2019-03-17T16:46:19.271Z,48.30
2019-03-17T16:49:11.820Z,48.30
2019-03-17T16:52:04.545Z,48.40
2019-03-17T16:54:56.960Z,48.40
2019-03-17T16:57:50.105Z,48.40
2019-03-17T17:00:43.164Z,48.90
2019-03-17T17:03:35.219Z,48.40
2019-03-17T17:06:27.732Z,48.60
2019-03-17T17:09:20.674Z,48.80
2019-03-17T17:12:13.126Z,48.90
2019-03-17T17:15:05.322Z,49.00
2019-03-17T17:17:57.487Z,49.20
2019-03-17T17:20:50.061Z,49.40
2019-03-17T17:23:42.355Z,49.40
2019-03-17T17:26:37.611Z,49.60
2019-03-17T17:29:31.242Z,49.60
2019-03-17T17:32:23.476Z,49.70
2019-03-17T17:35:17.049Z,49.70
2019-03-17T17:38:09.062Z,49.80
2019-03-17T17:41:01.629Z,49.80
2019-03-17T17:43:53.954Z,49.90
2019-03-17T17:46:46.025Z,49.90
2019-03-17T17:49:38.206Z,49.80
2019-03-17T17:52:30.912Z,49.80
2019-03-17T17:55:23.277Z,49.80
2019-03-17T17:58:15.475Z,49.80
2019-03-17T18:01:07.775Z,49.60
2019-03-17T18:04:00.459Z,49.70
2019-03-17T18:06:52.774Z,49.60
2019-03-17T18:09:45.274Z,49.70
2019-03-17T18:12:37.619Z,49.50
2019-03-17T18:15:30.110Z,49.50
2019-03-17T18:18:22.237Z,49.50
2019-03-17T18:21:14.169Z,50.20
2019-03-17T18:24:06.344Z,49.60
2019-03-17T18:26:58.220Z,49.50
2019-03-17T18:29:50.711Z,49.50
2019-03-17T18:32:43.178Z,49.50
2019-03-17T18:35:35.548Z,49.50
2019-03-17T18:38:28.309Z,49.60
2019-03-17T18:41:20.706Z,49.50
2019-03-17T18:44:13.189Z,49.50
2019-03-17T18:47:05.527Z,49.50
2019-03-17T18:49:57.598Z,49.40
2019-03-17T18:52:49.913Z,49.40
2019-03-17T18:55:43.881Z,49.40
2019-03-17T18:58:36.431Z,49.40
2019-03-17T19:01:28.833Z,49.40
2019-03-17T19:04:21.161Z,49.30
2019-03-17T19:07:13.907Z,49.30
2019-03-17T19:10:06.178Z,49.30
2019-03-17T19:12:58.098Z,49.20
2019-03-17T19:15:50.514Z,49.30
2019-03-17T19:18:42.449Z,49.30
2019-03-17T19:21:35.169Z,49.20
2019-03-17T19:24:27.496Z,49.20
2019-03-17T19:27:19.485Z,49.40
2019-03-17T19:30:12.205Z,49.20
2019-03-17T19:33:05.196Z,49.30
2019-03-17T19:35:57.650Z,49.30
2019-03-17T19:38:49.859Z,49.30
2019-03-17T19:41:41.832Z,49.20
2019-03-17T19:44:34.083Z,49.30
2019-03-17T19:47:26.187Z,49.10
2019-03-17T19:50:18.421Z,49.20
2019-03-17T19:53:10.477Z,49.10
2019-03-17T19:56:03.143Z,49.00
2019-03-17T19:58:55.243Z,48.90
2019-03-17T20:01:47.560Z,48.90
2019-03-17T20:04:39.909Z,48.90
2019-03-17T20:07:32.268Z,48.80
2019-03-17T20:10:24.483Z,49.00
2019-03-17T20:13:16.709Z,48.80
2019-03-17T20:16:09.117Z,48.50
2019-03-17T20:19:01.616Z,48.70
2019-03-17T20:21:54.186Z,48.90
2019-03-17T20:24:46.281Z,49.00
2019-03-17T20:27:38.660Z,49.00
2019-03-17T20:30:30.668Z,49.20
2019-03-17T20:33:23.184Z,49.00
2019-03-17T20:36:15.422Z,49.20
2019-03-17T20:39:08.597Z,49.20
2019-03-17T20:42:00.614Z,49.20
2019-03-17T20:44:52.918Z,49.10
2019-03-17T20:47:45.589Z,49.20
2019-03-17T20:50:37.893Z,49.20
2019-03-17T20:53:30.000Z,49.30
2019-03-17T20:56:22.333Z,49.20
2019-03-17T20:59:15.506Z,49.20
2019-03-17T21:02:07.347Z,49.20
2019-03-17T21:04:59.848Z,49.20
2019-03-17T21:07:51.722Z,49.10
2019-03-17T21:10:44.057Z,49.20
2019-03-17T21:13:46.142Z,49.30
2019-03-17T21:16:29.546Z,49.30
2019-03-17T21:19:22.903Z,49.30
2019-03-17T21:22:15.319Z,49.40
2019-03-17T21:25:07.814Z,49.50
2019-03-17T21:28:00.242Z,49.60
2019-03-17T21:30:52.450Z,49.40
2019-03-17T21:33:45.169Z,49.50
2019-03-17T21:36:37.304Z,49.60
2019-03-17T21:39:29.327Z,49.60
2019-03-17T21:42:21.297Z,49.60
2019-03-17T21:45:13.901Z,49.70
2019-03-17T21:48:05.923Z,49.60
2019-03-17T21:50:58.388Z,49.60
2019-03-17T21:53:50.723Z,49.70
2019-03-17T21:56:42.672Z,49.70
2019-03-17T21:59:35.166Z,49.80
2019-03-17T22:02:27.637Z,49.70
2019-03-17T22:05:20.021Z,49.90
2019-03-17T22:08:12.549Z,49.80
2019-03-17T22:11:04.699Z,49.90
2019-03-17T22:13:57.373Z,49.90
2019-03-17T22:16:49.668Z,49.70
2019-03-17T22:19:42.079Z,49.90
2019-03-17T22:22:34.065Z,50.00
2019-03-17T22:25:26.638Z,50.10
2019-03-17T22:28:19.820Z,50.00
2019-03-17T22:31:12.002Z,50.00
2019-03-17T22:34:04.365Z,50.00
2019-03-17T22:36:56.461Z,50.10
2019-03-17T22:39:49.198Z,50.20
2019-03-17T22:42:42.529Z,50.30
2019-03-17T22:45:34.626Z,50.20
2019-03-17T22:48:26.974Z,50.10
2019-03-17T22:51:19.389Z,50.20
2019-03-17T22:54:11.761Z,50.30
2019-03-17T22:57:03.968Z,50.30
2019-03-17T22:59:56.000Z,50.40
2019-03-17T23:02:49.547Z,50.40
2019-03-17T23:05:41.698Z,50.50
2019-03-17T23:08:33.583Z,50.50
2019-03-17T23:11:25.646Z,50.30
2019-03-17T23:14:17.911Z,50.40
2019-03-17T23:17:10.318Z,50.50
2019-03-17T23:20:02.720Z,50.50
2019-03-17T23:22:55.248Z,50.50
2019-03-17T23:25:47.340Z,50.50
2019-03-17T23:28:39.418Z,50.40
2019-03-17T23:31:32.087Z,50.40
2019-03-17T23:34:24.387Z,50.40
2019-03-17T23:37:16.635Z,50.50
2019-03-17T23:40:09.770Z,50.50
2019-03-17T23:43:02.030Z,50.50
2019-03-17T23:45:54.375Z,50.40
2019-03-17T23:48:46.718Z,50.50
2019-03-17T23:51:38.907Z,50.50
2019-03-17T23:54:31.186Z,50.50
2019-03-17T23:57:23.812Z,50.50
